Fenwick

*Note: All times are displayed in the local standard time of the station location.
**Rain - Equipment is designed to accurately record liquid precipitation; under conditions when precipitation is not in liquid form, the data displayed may not properly reflect rainfall values.

Date Max Temp
(°C)
Min Temp
(°C)
Avg Temp
(°C)
Rain (mm) Avg RH (%)
Mon, Apr 23, 2018 19.9 0.8 10.3 0.0 45.2
Sun, Apr 22, 2018 15.6 -2.5 8.0 0.0 50.6
Sat, Apr 21, 2018 12.3 -3.8 4.4 0.0 65.1
Fri, Apr 20, 2018 8.3 -2.1 2.2 0.0 66.4
Thu, Apr 19, 2018 3.6 -0.5 1.2 0.0 74.0
Wed, Apr 18, 2018 3.7 -0.2 1.2 0.0 87.6
Tue, Apr 17, 2018 1.0 -1.4 -0.2 0.8 86.4
DateTime Avg Temp (°C) Rain (mm) RH (%)
Tue, Apr 24, 2018 16:00 14.5 0.0 60.8
Tue, Apr 24, 2018 15:00 15.9 0.0 48.8
Tue, Apr 24, 2018 14:00 16.9 0.0 46.3
Tue, Apr 24, 2018 13:00 16.5 0.0 46.0
Tue, Apr 24, 2018 12:00 15.2 0.0 47.3
Tue, Apr 24, 2018 11:00 13.4 0.0 60.5
Tue, Apr 24, 2018 10:00 12.2 0.0 70.0
Tue, Apr 24, 2018 09:00 12.4 0.0 68.0
Tue, Apr 24, 2018 08:00 12.0 0.0 66.0
Tue, Apr 24, 2018 07:00 10.4 0.0 71.8
Tue, Apr 24, 2018 06:00 9.9 0.0 71.8
Tue, Apr 24, 2018 05:00 9.7 0.0 69.5
Tue, Apr 24, 2018 04:00 9.4 0.0 69.3
Tue, Apr 24, 2018 03:00 9.3 0.0 66.8
Tue, Apr 24, 2018 02:00 7.6 0.0 72.0
Tue, Apr 24, 2018 01:00 4.9 0.0 83.3
Tue, Apr 24, 2018 00:00 4.4 0.0 81.5
Mon, Apr 23, 2018 23:00 4.9 0.0 77.5
Mon, Apr 23, 2018 22:00 5.3 0.0 74.5
Mon, Apr 23, 2018 21:00 6.5 0.0 70.5
Mon, Apr 23, 2018 20:00 8.9 0.0 60.3
Mon, Apr 23, 2018 19:00 11.6 0.0 50.5
Mon, Apr 23, 2018 18:00 14.5 0.0 42.5
Mon, Apr 23, 2018 17:00 17.5 0.0 37.3
Mon, Apr 23, 2018 16:00 19.4 0.0 32.8
Mon, Apr 23, 2018 15:00 18.4 0.0 36.0
Mon, Apr 23, 2018 14:00 18.3 0.0 32.3
Mon, Apr 23, 2018 13:00 19.4 0.0 20.5
Mon, Apr 23, 2018 12:00 17.9 0.0 24.5
Mon, Apr 23, 2018 11:00 15.5 0.0 28.3
Mon, Apr 23, 2018 10:00 13.3 0.0 28.5
Mon, Apr 23, 2018 09:00 10.9 0.0 30.3
Mon, Apr 23, 2018 08:00 6.8 0.0 40.0
Mon, Apr 23, 2018 07:00 1.0 0.0 63.8
Mon, Apr 23, 2018 06:00 3.5 0.0 49.3
Mon, Apr 23, 2018 05:00 4.2 0.0 46.8
Mon, Apr 23, 2018 04:00 4.9 0.0 44.5
Mon, Apr 23, 2018 03:00 5.9 0.0 41.3
Mon, Apr 23, 2018 02:00 6.8 0.0 38.3
Mon, Apr 23, 2018 01:00 8.2 0.0 33.8
Mon, Apr 23, 2018 00:00 8.9 0.0 31.5
Sun, Apr 22, 2018 23:00 10.1 0.0 28.3
Sun, Apr 22, 2018 22:00 10.5 0.0 28.3
Sun, Apr 22, 2018 21:00 10.7 0.0 28.3
Sun, Apr 22, 2018 20:00 13.9 0.0 22.3
Sun, Apr 22, 2018 19:00 15.0 0.0 20.5
Sun, Apr 22, 2018 18:00 15.4 0.0 20.0
Sun, Apr 22, 2018 17:00 15.5 0.0 21.5


asterix Register now to access more data! asterix